sensor_id;sensor_type;location;lat;lon;timestamp;P1;durP1;ratioP1;P2;durP2;ratioP2
20611;SDS011;10465;42.686;23.364;2022-12-04T00:01:07;10.90;;;7.53;;
20611;SDS011;10465;42.686;23.364;2022-12-04T00:03:38;11.52;;;7.20;;
20611;SDS011;10465;42.686;23.364;2022-12-04T00:06:08;10.02;;;6.97;;
20611;SDS011;10465;42.686;23.364;2022-12-04T00:08:36;10.00;;;7.22;;
20611;SDS011;10465;42.686;23.364;2022-12-04T00:11:05;10.63;;;6.93;;
20611;SDS011;10465;42.686;23.364;2022-12-04T00:13:33;9.93;;;6.30;;
20611;SDS011;10465;42.686;23.364;2022-12-04T00:15:59;11.43;;;7.72;;
20611;SDS011;10465;42.686;23.364;2022-12-04T00:18:25;11.40;;;7.45;;
20611;SDS011;10465;42.686;23.364;2022-12-04T00:20:51;10.98;;;6.97;;
20611;SDS011;10465;42.686;23.364;2022-12-04T00:23:16;10.15;;;6.35;;
20611;SDS011;10465;42.686;23.364;2022-12-04T00:25:42;11.05;;;7.35;;
20611;SDS011;10465;42.686;23.364;2022-12-04T00:28:12;9.07;;;6.78;;
20611;SDS011;10465;42.686;23.364;2022-12-04T00:30:42;10.82;;;6.57;;
20611;SDS011;10465;42.686;23.364;2022-12-04T00:33:09;10.82;;;7.18;;
20611;SDS011;10465;42.686;23.364;2022-12-04T00:35:35;9.55;;;6.88;;
20611;SDS011;10465;42.686;23.364;2022-12-04T00:38:00;10.13;;;6.95;;
20611;SDS011;10465;42.686;23.364;2022-12-04T00:40:26;11.48;;;7.20;;
20611;SDS011;10465;42.686;23.364;2022-12-04T00:42:51;9.98;;;6.82;;
20611;SDS011;10465;42.686;23.364;2022-12-04T00:45:17;10.32;;;6.88;;
20611;SDS011;10465;42.686;23.364;2022-12-04T00:47:42;11.95;;;7.40;;
20611;SDS011;10465;42.686;23.364;2022-12-04T00:50:08;10.27;;;6.28;;
20611;SDS011;10465;42.686;23.364;2022-12-04T00:52:34;9.80;;;6.68;;
20611;SDS011;10465;42.686;23.364;2022-12-04T00:54:59;8.32;;;6.40;;
20611;SDS011;10465;42.686;23.364;2022-12-04T00:57:25;9.70;;;6.53;;
20611;SDS011;10465;42.686;23.364;2022-12-04T00:59:50;9.60;;;6.47;;
20611;SDS011;10465;42.686;23.364;2022-12-04T01:02:16;8.55;;;5.68;;
20611;SDS011;10465;42.686;23.364;2022-12-04T01:04:41;8.07;;;5.45;;
20611;SDS011;10465;42.686;23.364;2022-12-04T01:07:08;8.18;;;5.75;;
20611;SDS011;10465;42.686;23.364;2022-12-04T01:09:33;8.60;;;5.40;;
20611;SDS011;10465;42.686;23.364;2022-12-04T01:11:59;10.00;;;6.10;;
20611;SDS011;10465;42.686;23.364;2022-12-04T01:14:24;10.38;;;5.97;;
20611;SDS011;10465;42.686;23.364;2022-12-04T01:16:50;7.22;;;5.47;;
20611;SDS011;10465;42.686;23.364;2022-12-04T01:19:15;7.78;;;5.35;;
20611;SDS011;10465;42.686;23.364;2022-12-04T01:21:41;9.30;;;5.95;;
20611;SDS011;10465;42.686;23.364;2022-12-04T01:24:06;8.40;;;6.07;;
20611;SDS011;10465;42.686;23.364;2022-12-04T01:26:32;9.07;;;5.75;;
20611;SDS011;10465;42.686;23.364;2022-12-04T01:28:58;7.13;;;5.13;;
20611;SDS011;10465;42.686;23.364;2022-12-04T01:31:24;8.43;;;5.40;;
20611;SDS011;10465;42.686;23.364;2022-12-04T01:33:50;8.80;;;5.85;;
20611;SDS011;10465;42.686;23.364;2022-12-04T01:36:17;8.95;;;5.43;;
20611;SDS011;10465;42.686;23.364;2022-12-04T01:38:45;7.13;;;4.82;;
20611;SDS011;10465;42.686;23.364;2022-12-04T01:41:12;9.18;;;5.53;;
20611;SDS011;10465;42.686;23.364;2022-12-04T01:43:39;8.85;;;5.32;;
20611;SDS011;10465;42.686;23.364;2022-12-04T01:46:05;7.40;;;4.65;;
20611;SDS011;10465;42.686;23.364;2022-12-04T01:51:14;6.45;;;5.05;;
20611;SDS011;10465;42.686;23.364;2022-12-04T01:53:42;5.30;;;4.10;;
20611;SDS011;10465;42.686;23.364;2022-12-04T01:56:13;6.57;;;4.70;;
20611;SDS011;10465;42.686;23.364;2022-12-04T01:58:41;8.23;;;4.95;;
20611;SDS011;10465;42.686;23.364;2022-12-04T02:01:10;7.22;;;4.60;;
20611;SDS011;10465;42.686;23.364;2022-12-04T02:03:36;7.07;;;4.80;;
20611;SDS011;10465;42.686;23.364;2022-12-04T02:06:03;8.02;;;5.22;;
20611;SDS011;10465;42.686;23.364;2022-12-04T02:08:29;10.15;;;4.95;;
20611;SDS011;10465;42.686;23.364;2022-12-04T02:11:04;8.00;;;4.97;;
20611;SDS011;10465;42.686;23.364;2022-12-04T02:13:53;6.25;;;4.82;;
20611;SDS011;10465;42.686;23.364;2022-12-04T02:22:09;6.40;;;4.60;;
20611;SDS011;10465;42.686;23.364;2022-12-04T02:24:52;5.88;;;3.83;;
20611;SDS011;10465;42.686;23.364;2022-12-04T02:35:22;6.60;;;4.07;;
20611;SDS011;10465;42.686;23.364;2022-12-04T02:37:53;5.45;;;3.88;;
20611;SDS011;10465;42.686;23.364;2022-12-04T02:40:32;6.28;;;4.43;;
20611;SDS011;10465;42.686;23.364;2022-12-04T02:43:39;5.43;;;4.07;;
20611;SDS011;10465;42.686;23.364;2022-12-04T02:48:34;6.47;;;4.10;;
20611;SDS011;10465;42.686;23.364;2022-12-04T02:51:04;5.65;;;4.10;;
20611;SDS011;10465;42.686;23.364;2022-12-04T02:53:33;5.60;;;3.85;;
20611;SDS011;10465;42.686;23.364;2022-12-04T02:56:05;5.07;;;3.80;;
20611;SDS011;10465;42.686;23.364;2022-12-04T02:58:38;5.53;;;3.97;;
20611;SDS011;10465;42.686;23.364;2022-12-04T03:01:08;6.22;;;4.10;;
20611;SDS011;10465;42.686;23.364;2022-12-04T03:03:48;5.30;;;4.10;;
20611;SDS011;10465;42.686;23.364;2022-12-04T03:06:19;5.72;;;4.20;;
20611;SDS011;10465;42.686;23.364;2022-12-04T03:08:50;6.15;;;4.57;;
20611;SDS011;10465;42.686;23.364;2022-12-04T03:11:21;5.22;;;3.97;;
20611;SDS011;10465;42.686;23.364;2022-12-04T03:14:00;5.82;;;3.83;;
20611;SDS011;10465;42.686;23.364;2022-12-04T03:16:45;6.25;;;4.05;;
20611;SDS011;10465;42.686;23.364;2022-12-04T03:19:15;6.80;;;4.40;;
20611;SDS011;10465;42.686;23.364;2022-12-04T03:21:50;6.22;;;4.25;;
20611;SDS011;10465;42.686;23.364;2022-12-04T03:24:22;5.93;;;3.65;;
20611;SDS011;10465;42.686;23.364;2022-12-04T03:27:02;7.45;;;4.95;;
20611;SDS011;10465;42.686;23.364;2022-12-04T03:29:46;4.75;;;3.72;;
20611;SDS011;10465;42.686;23.364;2022-12-04T03:33:00;5.90;;;4.28;;
20611;SDS011;10465;42.686;23.364;2022-12-04T03:35:39;5.60;;;4.15;;
20611;SDS011;10465;42.686;23.364;2022-12-04T03:38:34;5.60;;;3.95;;
20611;SDS011;10465;42.686;23.364;2022-12-04T03:41:05;5.88;;;3.88;;
20611;SDS011;10465;42.686;23.364;2022-12-04T03:43:49;5.95;;;4.05;;
20611;SDS011;10465;42.686;23.364;2022-12-04T03:46:23;5.85;;;4.15;;
20611;SDS011;10465;42.686;23.364;2022-12-04T03:48:54;5.90;;;3.97;;
20611;SDS011;10465;42.686;23.364;2022-12-04T03:51:46;5.30;;;4.15;;
20611;SDS011;10465;42.686;23.364;2022-12-04T03:54:20;6.20;;;4.15;;
20611;SDS011;10465;42.686;23.364;2022-12-04T03:56:54;5.93;;;3.97;;
20611;SDS011;10465;42.686;23.364;2022-12-04T03:59:28;5.90;;;4.05;;
20611;SDS011;10465;42.686;23.364;2022-12-04T04:02:01;5.03;;;3.67;;
20611;SDS011;10465;42.686;23.364;2022-12-04T04:04:38;4.68;;;3.75;;
20611;SDS011;10465;42.686;23.364;2022-12-04T04:07:08;5.85;;;4.20;;
20611;SDS011;10465;42.686;23.364;2022-12-04T04:09:38;4.30;;;3.42;;
20611;SDS011;10465;42.686;23.364;2022-12-04T04:14:33;5.60;;;3.97;;
20611;SDS011;10465;42.686;23.364;2022-12-04T04:17:24;5.28;;;3.95;;
20611;SDS011;10465;42.686;23.364;2022-12-04T04:20:15;5.90;;;3.85;;
20611;SDS011;10465;42.686;23.364;2022-12-04T04:23:05;4.68;;;3.58;;
20611;SDS011;10465;42.686;23.364;2022-12-04T04:25:53;5.03;;;3.60;;
20611;SDS011;10465;42.686;23.364;2022-12-04T04:31:01;4.32;;;3.17;;
20611;SDS011;10465;42.686;23.364;2022-12-04T04:33:33;4.82;;;3.30;;
20611;SDS011;10465;42.686;23.364;2022-12-04T04:36:13;4.28;;;3.33;;
20611;SDS011;10465;42.686;23.364;2022-12-04T04:44:59;6.38;;;4.03;;
20611;SDS011;10465;42.686;23.364;2022-12-04T04:47:35;5.65;;;4.20;;
20611;SDS011;10465;42.686;23.364;2022-12-04T04:50:07;5.97;;;4.18;;
20611;SDS011;10465;42.686;23.364;2022-12-04T04:52:36;6.07;;;4.57;;
20611;SDS011;10465;42.686;23.364;2022-12-04T04:55:04;5.47;;;3.92;;
20611;SDS011;10465;42.686;23.364;2022-12-04T04:57:32;5.35;;;3.63;;
20611;SDS011;10465;42.686;23.364;2022-12-04T05:00:21;5.47;;;4.00;;
20611;SDS011;10465;42.686;23.364;2022-12-04T05:02:47;5.53;;;3.88;;
20611;SDS011;10465;42.686;23.364;2022-12-04T05:05:15;5.75;;;4.07;;
20611;SDS011;10465;42.686;23.364;2022-12-04T05:07:41;5.75;;;4.22;;
20611;SDS011;10465;42.686;23.364;2022-12-04T05:10:07;6.00;;;3.88;;
20611;SDS011;10465;42.686;23.364;2022-12-04T05:12:33;5.75;;;3.95;;
20611;SDS011;10465;42.686;23.364;2022-12-04T05:14:59;7.20;;;4.43;;
20611;SDS011;10465;42.686;23.364;2022-12-04T05:17:25;5.53;;;4.18;;
20611;SDS011;10465;42.686;23.364;2022-12-04T05:19:50;7.20;;;4.55;;
20611;SDS011;10465;42.686;23.364;2022-12-04T05:22:19;7.30;;;4.93;;
20611;SDS011;10465;42.686;23.364;2022-12-04T05:24:46;7.80;;;5.18;;
20611;SDS011;10465;42.686;23.364;2022-12-04T05:27:11;6.63;;;4.80;;
20611;SDS011;10465;42.686;23.364;2022-12-04T05:29:38;7.18;;;5.00;;
20611;SDS011;10465;42.686;23.364;2022-12-04T05:32:03;7.57;;;5.25;;
20611;SDS011;10465;42.686;23.364;2022-12-04T05:34:29;6.70;;;4.55;;
20611;SDS011;10465;42.686;23.364;2022-12-04T05:36:55;8.05;;;5.32;;
20611;SDS011;10465;42.686;23.364;2022-12-04T05:39:20;7.70;;;4.72;;
20611;SDS011;10465;42.686;23.364;2022-12-04T05:41:46;8.32;;;5.53;;
20611;SDS011;10465;42.686;23.364;2022-12-04T05:44:11;7.68;;;5.20;;
20611;SDS011;10465;42.686;23.364;2022-12-04T05:46:37;8.93;;;4.95;;
20611;SDS011;10465;42.686;23.364;2022-12-04T05:49:02;6.68;;;4.60;;
20611;SDS011;10465;42.686;23.364;2022-12-04T05:51:28;6.43;;;4.57;;
20611;SDS011;10465;42.686;23.364;2022-12-04T05:53:53;7.28;;;4.53;;
20611;SDS011;10465;42.686;23.364;2022-12-04T05:56:19;7.60;;;4.80;;
20611;SDS011;10465;42.686;23.364;2022-12-04T05:58:44;7.40;;;4.38;;
20611;SDS011;10465;42.686;23.364;2022-12-04T06:01:20;6.78;;;4.32;;
20611;SDS011;10465;42.686;23.364;2022-12-04T06:03:48;6.25;;;4.80;;
20611;SDS011;10465;42.686;23.364;2022-12-04T06:06:20;6.28;;;4.60;;
20611;SDS011;10465;42.686;23.364;2022-12-04T06:08:48;7.40;;;5.30;;
20611;SDS011;10465;42.686;23.364;2022-12-04T06:11:21;7.38;;;5.10;;
20611;SDS011;10465;42.686;23.364;2022-12-04T06:13:51;6.45;;;4.32;;
20611;SDS011;10465;42.686;23.364;2022-12-04T06:16:24;5.65;;;3.80;;
20611;SDS011;10465;42.686;23.364;2022-12-04T06:18:53;6.88;;;4.60;;
20611;SDS011;10465;42.686;23.364;2022-12-04T06:21:20;7.63;;;5.63;;
20611;SDS011;10465;42.686;23.364;2022-12-04T06:23:50;5.20;;;4.00;;
20611;SDS011;10465;42.686;23.364;2022-12-04T06:26:16;6.22;;;4.72;;
20611;SDS011;10465;42.686;23.364;2022-12-04T06:28:42;6.47;;;4.63;;
20611;SDS011;10465;42.686;23.364;2022-12-04T06:31:09;6.70;;;4.63;;
20611;SDS011;10465;42.686;23.364;2022-12-04T06:33:36;6.03;;;4.60;;
20611;SDS011;10465;42.686;23.364;2022-12-04T06:36:09;6.55;;;4.57;;
20611;SDS011;10465;42.686;23.364;2022-12-04T06:38:36;7.57;;;5.10;;
20611;SDS011;10465;42.686;23.364;2022-12-04T06:41:06;7.55;;;5.15;;
20611;SDS011;10465;42.686;23.364;2022-12-04T06:43:34;8.57;;;5.25;;
20611;SDS011;10465;42.686;23.364;2022-12-04T06:46:04;8.80;;;5.22;;
20611;SDS011;10465;42.686;23.364;2022-12-04T06:48:40;8.45;;;5.47;;
20611;SDS011;10465;42.686;23.364;2022-12-04T06:51:09;9.48;;;5.45;;
20611;SDS011;10465;42.686;23.364;2022-12-04T06:53:39;7.78;;;5.55;;
20611;SDS011;10465;42.686;23.364;2022-12-04T06:56:07;8.68;;;5.68;;
20611;SDS011;10465;42.686;23.364;2022-12-04T06:58:47;7.63;;;5.35;;
20611;SDS011;10465;42.686;23.364;2022-12-04T07:01:15;10.25;;;6.75;;
20611;SDS011;10465;42.686;23.364;2022-12-04T07:03:42;9.93;;;6.22;;
20611;SDS011;10465;42.686;23.364;2022-12-04T07:06:09;11.73;;;6.72;;
20611;SDS011;10465;42.686;23.364;2022-12-04T07:08:58;8.35;;;5.68;;
20611;SDS011;10465;42.686;23.364;2022-12-04T07:11:35;8.68;;;6.07;;
20611;SDS011;10465;42.686;23.364;2022-12-04T07:14:01;8.93;;;5.90;;
20611;SDS011;10465;42.686;23.364;2022-12-04T07:16:27;9.43;;;5.63;;
20611;SDS011;10465;42.686;23.364;2022-12-04T07:18:53;7.60;;;5.30;;
20611;SDS011;10465;42.686;23.364;2022-12-04T07:21:30;7.22;;;5.00;;
20611;SDS011;10465;42.686;23.364;2022-12-04T07:23:57;7.25;;;4.75;;
20611;SDS011;10465;42.686;23.364;2022-12-04T07:26:43;7.28;;;5.03;;
20611;SDS011;10465;42.686;23.364;2022-12-04T07:29:09;7.40;;;5.10;;
20611;SDS011;10465;42.686;23.364;2022-12-04T07:31:35;7.20;;;5.20;;
20611;SDS011;10465;42.686;23.364;2022-12-04T07:34:00;8.40;;;5.32;;
20611;SDS011;10465;42.686;23.364;2022-12-04T07:36:26;7.75;;;4.82;;
20611;SDS011;10465;42.686;23.364;2022-12-04T07:38:53;7.60;;;5.28;;
20611;SDS011;10465;42.686;23.364;2022-12-04T07:41:19;9.15;;;5.13;;
20611;SDS011;10465;42.686;23.364;2022-12-04T07:43:44;7.15;;;4.63;;
20611;SDS011;10465;42.686;23.364;2022-12-04T07:46:12;7.03;;;4.85;;
20611;SDS011;10465;42.686;23.364;2022-12-04T07:48:42;7.80;;;4.78;;
20611;SDS011;10465;42.686;23.364;2022-12-04T07:51:08;8.07;;;4.57;;
20611;SDS011;10465;42.686;23.364;2022-12-04T07:53:35;7.07;;;4.47;;
20611;SDS011;10465;42.686;23.364;2022-12-04T07:56:02;6.50;;;4.30;;
20611;SDS011;10465;42.686;23.364;2022-12-04T07:58:29;6.70;;;4.30;;
20611;SDS011;10465;42.686;23.364;2022-12-04T08:00:55;6.80;;;4.70;;
20611;SDS011;10465;42.686;23.364;2022-12-04T08:03:40;8.32;;;4.28;;
20611;SDS011;10465;42.686;23.364;2022-12-04T08:06:10;7.32;;;4.32;;
20611;SDS011;10465;42.686;23.364;2022-12-04T08:08:36;5.50;;;3.55;;
20611;SDS011;10465;42.686;23.364;2022-12-04T08:11:06;6.35;;;4.18;;
20611;SDS011;10465;42.686;23.364;2022-12-04T08:13:36;4.30;;;3.60;;
20611;SDS011;10465;42.686;23.364;2022-12-04T08:16:02;6.45;;;4.28;;
20611;SDS011;10465;42.686;23.364;2022-12-04T08:18:28;5.50;;;3.90;;
20611;SDS011;10465;42.686;23.364;2022-12-04T08:21:00;6.30;;;4.13;;
20611;SDS011;10465;42.686;23.364;2022-12-04T08:23:27;4.82;;;3.42;;
20611;SDS011;10465;42.686;23.364;2022-12-04T08:25:56;6.18;;;3.92;;
20611;SDS011;10465;42.686;23.364;2022-12-04T08:28:23;123.15;;;22.73;;
20611;SDS011;10465;42.686;23.364;2022-12-04T08:30:48;30.08;;;10.38;;
20611;SDS011;10465;42.686;23.364;2022-12-04T08:33:14;6.85;;;4.72;;
20611;SDS011;10465;42.686;23.364;2022-12-04T08:35:40;9.60;;;4.68;;
20611;SDS011;10465;42.686;23.364;2022-12-04T08:38:06;6.28;;;4.60;;
20611;SDS011;10465;42.686;23.364;2022-12-04T08:40:32;6.88;;;4.32;;
20611;SDS011;10465;42.686;23.364;2022-12-04T08:42:57;7.22;;;4.53;;
20611;SDS011;10465;42.686;23.364;2022-12-04T08:45:23;9.65;;;4.53;;
20611;SDS011;10465;42.686;23.364;2022-12-04T08:47:48;5.65;;;4.15;;
20611;SDS011;10465;42.686;23.364;2022-12-04T08:50:14;10.45;;;4.97;;
20611;SDS011;10465;42.686;23.364;2022-12-04T08:52:43;7.85;;;5.35;;
20611;SDS011;10465;42.686;23.364;2022-12-04T08:55:08;6.60;;;4.28;;
20611;SDS011;10465;42.686;23.364;2022-12-04T08:57:34;6.60;;;4.25;;
20611;SDS011;10465;42.686;23.364;2022-12-04T08:59:59;8.85;;;6.03;;
20611;SDS011;10465;42.686;23.364;2022-12-04T09:02:25;8.60;;;4.95;;
20611;SDS011;10465;42.686;23.364;2022-12-04T09:04:51;7.72;;;5.00;;
20611;SDS011;10465;42.686;23.364;2022-12-04T09:07:17;8.13;;;4.22;;
20611;SDS011;10465;42.686;23.364;2022-12-04T09:13:01;8.88;;;5.35;;
20611;SDS011;10465;42.686;23.364;2022-12-04T09:15:27;6.35;;;4.40;;
20611;SDS011;10465;42.686;23.364;2022-12-04T09:17:52;7.13;;;4.53;;
20611;SDS011;10465;42.686;23.364;2022-12-04T09:20:18;5.82;;;4.00;;
20611;SDS011;10465;42.686;23.364;2022-12-04T09:22:43;6.43;;;4.32;;
20611;SDS011;10465;42.686;23.364;2022-12-04T09:25:09;5.93;;;4.10;;
20611;SDS011;10465;42.686;23.364;2022-12-04T09:27:36;5.90;;;3.85;;
20611;SDS011;10465;42.686;23.364;2022-12-04T09:30:02;8.63;;;4.13;;
20611;SDS011;10465;42.686;23.364;2022-12-04T09:32:32;8.85;;;4.90;;
20611;SDS011;10465;42.686;23.364;2022-12-04T09:34:58;9.57;;;4.78;;
20611;SDS011;10465;42.686;23.364;2022-12-04T09:37:24;6.78;;;4.45;;
20611;SDS011;10465;42.686;23.364;2022-12-04T09:39:50;7.13;;;5.00;;
20611;SDS011;10465;42.686;23.364;2022-12-04T09:42:19;7.85;;;4.90;;
20611;SDS011;10465;42.686;23.364;2022-12-04T09:47:35;8.55;;;4.78;;
20611;SDS011;10465;42.686;23.364;2022-12-04T09:53:05;10.30;;;6.03;;
20611;SDS011;10465;42.686;23.364;2022-12-04T09:55:37;11.35;;;6.15;;
20611;SDS011;10465;42.686;23.364;2022-12-04T09:58:16;10.60;;;4.90;;
20611;SDS011;10465;42.686;23.364;2022-12-04T10:00:46;9.23;;;5.97;;
20611;SDS011;10465;42.686;23.364;2022-12-04T10:03:17;7.05;;;4.82;;
20611;SDS011;10465;42.686;23.364;2022-12-04T10:08:32;8.90;;;5.30;;
20611;SDS011;10465;42.686;23.364;2022-12-04T10:25:39;8.45;;;5.25;;
20611;SDS011;10465;42.686;23.364;2022-12-04T10:27:50;10.07;;;6.05;;
20611;SDS011;10465;42.686;23.364;2022-12-04T10:30:21;8.82;;;5.93;;
20611;SDS011;10465;42.686;23.364;2022-12-04T10:32:50;9.55;;;5.85;;
20611;SDS011;10465;42.686;23.364;2022-12-04T10:35:34;10.52;;;5.93;;
20611;SDS011;10465;42.686;23.364;2022-12-04T10:38:21;8.90;;;5.82;;
20611;SDS011;10465;42.686;23.364;2022-12-04T10:40:51;9.02;;;6.20;;
20611;SDS011;10465;42.686;23.364;2022-12-04T10:45:57;9.30;;;6.18;;
20611;SDS011;10465;42.686;23.364;2022-12-04T10:48:35;9.80;;;6.20;;
20611;SDS011;10465;42.686;23.364;2022-12-04T10:51:04;8.02;;;5.50;;
20611;SDS011;10465;42.686;23.364;2022-12-04T10:53:31;9.48;;;6.25;;
20611;SDS011;10465;42.686;23.364;2022-12-04T10:56:08;10.35;;;6.32;;
20611;SDS011;10465;42.686;23.364;2022-12-04T10:58:42;7.35;;;5.07;;
20611;SDS011;10465;42.686;23.364;2022-12-04T11:01:29;7.88;;;5.45;;
20611;SDS011;10465;42.686;23.364;2022-12-04T11:04:07;9.60;;;5.93;;
20611;SDS011;10465;42.686;23.364;2022-12-04T11:06:43;8.55;;;5.57;;
20611;SDS011;10465;42.686;23.364;2022-12-04T11:09:17;9.13;;;4.70;;
20611;SDS011;10465;42.686;23.364;2022-12-04T11:11:47;8.80;;;5.20;;
20611;SDS011;10465;42.686;23.364;2022-12-04T11:14:41;7.47;;;5.32;;
20611;SDS011;10465;42.686;23.364;2022-12-04T11:17:13;7.82;;;5.05;;
20611;SDS011;10465;42.686;23.364;2022-12-04T11:19:43;8.85;;;5.07;;
20611;SDS011;10465;42.686;23.364;2022-12-04T11:22:12;7.43;;;4.75;;
20611;SDS011;10465;42.686;23.364;2022-12-04T11:24:42;6.68;;;5.18;;
20611;SDS011;10465;42.686;23.364;2022-12-04T11:27:18;7.78;;;5.50;;
20611;SDS011;10465;42.686;23.364;2022-12-04T11:29:48;6.80;;;4.72;;
20611;SDS011;10465;42.686;23.364;2022-12-04T11:32:31;7.10;;;5.15;;
20611;SDS011;10465;42.686;23.364;2022-12-04T11:34:59;8.30;;;5.45;;
20611;SDS011;10465;42.686;23.364;2022-12-04T11:37:36;6.85;;;4.30;;
20611;SDS011;10465;42.686;23.364;2022-12-04T11:40:04;8.77;;;4.93;;
20611;SDS011;10465;42.686;23.364;2022-12-04T11:42:39;6.55;;;4.50;;
20611;SDS011;10465;42.686;23.364;2022-12-04T11:45:17;6.78;;;4.90;;
20611;SDS011;10465;42.686;23.364;2022-12-04T11:47:55;6.60;;;4.95;;
20611;SDS011;10465;42.686;23.364;2022-12-04T11:58:27;8.13;;;6.03;;
20611;SDS011;10465;42.686;23.364;2022-12-04T12:01:12;9.30;;;5.93;;
20611;SDS011;10465;42.686;23.364;2022-12-04T12:06:33;9.10;;;5.80;;
20611;SDS011;10465;42.686;23.364;2022-12-04T12:11:56;9.35;;;6.55;;
20611;SDS011;10465;42.686;23.364;2022-12-04T12:17:05;8.55;;;6.22;;
20611;SDS011;10465;42.686;23.364;2022-12-04T12:30:07;12.00;;;7.32;;
20611;SDS011;10465;42.686;23.364;2022-12-04T12:35:30;9.75;;;6.97;;
20611;SDS011;10465;42.686;23.364;2022-12-04T12:38:17;9.45;;;6.60;;
20611;SDS011;10465;42.686;23.364;2022-12-04T12:40:58;8.90;;;6.32;;
20611;SDS011;10465;42.686;23.364;2022-12-04T12:43:32;11.02;;;7.47;;
20611;SDS011;10465;42.686;23.364;2022-12-04T12:48:35;9.55;;;6.35;;
20611;SDS011;10465;42.686;23.364;2022-12-04T12:57:01;9.65;;;6.57;;
20611;SDS011;10465;42.686;23.364;2022-12-04T12:59:32;14.48;;;7.90;;
20611;SDS011;10465;42.686;23.364;2022-12-04T13:04:42;10.35;;;7.20;;
20611;SDS011;10465;42.686;23.364;2022-12-04T13:09:43;16.55;;;7.90;;
20611;SDS011;10465;42.686;23.364;2022-12-04T13:12:16;13.05;;;7.30;;
20611;SDS011;10465;42.686;23.364;2022-12-04T13:14:43;10.43;;;7.70;;
20611;SDS011;10465;42.686;23.364;2022-12-04T13:19:51;11.95;;;7.50;;
20611;SDS011;10465;42.686;23.364;2022-12-04T13:25:10;11.43;;;7.82;;
20611;SDS011;10465;42.686;23.364;2022-12-04T13:31:24;13.18;;;7.53;;
20611;SDS011;10465;42.686;23.364;2022-12-04T13:34:20;15.43;;;8.35;;
20611;SDS011;10465;42.686;23.364;2022-12-04T13:43:12;11.43;;;7.43;;
20611;SDS011;10465;42.686;23.364;2022-12-04T13:45:43;9.80;;;6.75;;
20611;SDS011;10465;42.686;23.364;2022-12-04T13:48:10;10.35;;;6.47;;
20611;SDS011;10465;42.686;23.364;2022-12-04T13:50:38;9.90;;;6.55;;
20611;SDS011;10465;42.686;23.364;2022-12-04T13:53:05;10.23;;;7.03;;
20611;SDS011;10465;42.686;23.364;2022-12-04T13:55:55;10.63;;;6.97;;
20611;SDS011;10465;42.686;23.364;2022-12-04T13:58:24;11.95;;;7.60;;
20611;SDS011;10465;42.686;23.364;2022-12-04T14:03:32;11.43;;;6.53;;
20611;SDS011;10465;42.686;23.364;2022-12-04T14:06:03;9.23;;;5.97;;
20611;SDS011;10465;42.686;23.364;2022-12-04T14:08:44;10.70;;;7.35;;
20611;SDS011;10465;42.686;23.364;2022-12-04T14:11:17;10.10;;;5.90;;
20611;SDS011;10465;42.686;23.364;2022-12-04T14:13:51;10.93;;;7.00;;
20611;SDS011;10465;42.686;23.364;2022-12-04T14:18:55;10.02;;;7.00;;
20611;SDS011;10465;42.686;23.364;2022-12-04T14:21:25;11.07;;;7.63;;
20611;SDS011;10465;42.686;23.364;2022-12-04T14:24:17;11.45;;;7.05;;
20611;SDS011;10465;42.686;23.364;2022-12-04T14:27:28;10.95;;;6.68;;
20611;SDS011;10465;42.686;23.364;2022-12-04T14:30:23;9.63;;;6.25;;
20611;SDS011;10465;42.686;23.364;2022-12-04T14:32:53;11.27;;;6.97;;
20611;SDS011;10465;42.686;23.364;2022-12-04T14:35:25;10.30;;;7.05;;
20611;SDS011;10465;42.686;23.364;2022-12-04T14:37:56;12.18;;;7.47;;
20611;SDS011;10465;42.686;23.364;2022-12-04T14:40:36;12.68;;;7.07;;
20611;SDS011;10465;42.686;23.364;2022-12-04T14:43:27;11.13;;;6.78;;
20611;SDS011;10465;42.686;23.364;2022-12-04T14:46:05;10.32;;;7.13;;
20611;SDS011;10465;42.686;23.364;2022-12-04T14:54:49;13.88;;;7.43;;
20611;SDS011;10465;42.686;23.364;2022-12-04T14:57:47;9.25;;;6.35;;
20611;SDS011;10465;42.686;23.364;2022-12-04T15:00:24;11.05;;;7.40;;
20611;SDS011;10465;42.686;23.364;2022-12-04T15:02:59;15.52;;;8.57;;
20611;SDS011;10465;42.686;23.364;2022-12-04T15:05:27;11.35;;;7.47;;
20611;SDS011;10465;42.686;23.364;2022-12-04T15:08:01;13.60;;;8.15;;
20611;SDS011;10465;42.686;23.364;2022-12-04T15:10:31;14.23;;;7.85;;
20611;SDS011;10465;42.686;23.364;2022-12-04T15:13:26;11.20;;;7.30;;
20611;SDS011;10465;42.686;23.364;2022-12-04T15:15:53;12.57;;;7.28;;
20611;SDS011;10465;42.686;23.364;2022-12-04T15:18:18;9.40;;;6.88;;
20611;SDS011;10465;42.686;23.364;2022-12-04T15:25:45;11.02;;;7.18;;
20611;SDS011;10465;42.686;23.364;2022-12-04T15:28:15;11.20;;;6.65;;
20611;SDS011;10465;42.686;23.364;2022-12-04T15:30:44;10.30;;;6.85;;
20611;SDS011;10465;42.686;23.364;2022-12-04T15:33:16;12.02;;;7.15;;
20611;SDS011;10465;42.686;23.364;2022-12-04T15:35:49;10.88;;;7.65;;
20611;SDS011;10465;42.686;23.364;2022-12-04T15:38:18;12.35;;;7.97;;
20611;SDS011;10465;42.686;23.364;2022-12-04T15:40:54;12.55;;;8.00;;
20611;SDS011;10465;42.686;23.364;2022-12-04T15:43:24;11.85;;;7.25;;
20611;SDS011;10465;42.686;23.364;2022-12-04T15:45:55;12.23;;;8.07;;
20611;SDS011;10465;42.686;23.364;2022-12-04T15:48:30;16.00;;;9.32;;
20611;SDS011;10465;42.686;23.364;2022-12-04T15:50:56;17.05;;;10.27;;
20611;SDS011;10465;42.686;23.364;2022-12-04T15:53:26;13.80;;;9.57;;
20611;SDS011;10465;42.686;23.364;2022-12-04T15:55:55;16.92;;;10.63;;
20611;SDS011;10465;42.686;23.364;2022-12-04T15:58:27;13.90;;;9.43;;
20611;SDS011;10465;42.686;23.364;2022-12-04T16:00:59;17.55;;;9.35;;
20611;SDS011;10465;42.686;23.364;2022-12-04T16:03:30;17.75;;;10.32;;
20611;SDS011;10465;42.686;23.364;2022-12-04T16:06:18;15.77;;;10.40;;
20611;SDS011;10465;42.686;23.364;2022-12-04T16:08:50;14.52;;;9.52;;
20611;SDS011;10465;42.686;23.364;2022-12-04T16:13:47;13.27;;;8.50;;
20611;SDS011;10465;42.686;23.364;2022-12-04T16:16:14;14.45;;;8.25;;
20611;SDS011;10465;42.686;23.364;2022-12-04T16:18:42;13.10;;;8.13;;
20611;SDS011;10465;42.686;23.364;2022-12-04T16:21:14;12.77;;;7.60;;
20611;SDS011;10465;42.686;23.364;2022-12-04T16:23:41;14.07;;;7.70;;
20611;SDS011;10465;42.686;23.364;2022-12-04T16:26:16;15.45;;;7.93;;
20611;SDS011;10465;42.686;23.364;2022-12-04T16:28:44;13.15;;;7.20;;
20611;SDS011;10465;42.686;23.364;2022-12-04T16:31:10;13.52;;;7.88;;
20611;SDS011;10465;42.686;23.364;2022-12-04T16:33:39;13.68;;;7.53;;
20611;SDS011;10465;42.686;23.364;2022-12-04T16:36:05;14.40;;;7.88;;
20611;SDS011;10465;42.686;23.364;2022-12-04T16:38:30;12.43;;;7.45;;
20611;SDS011;10465;42.686;23.364;2022-12-04T16:40:56;12.52;;;7.05;;
20611;SDS011;10465;42.686;23.364;2022-12-04T16:43:21;11.43;;;6.70;;
20611;SDS011;10465;42.686;23.364;2022-12-04T16:45:51;12.57;;;6.75;;
20611;SDS011;10465;42.686;23.364;2022-12-04T16:48:18;15.60;;;7.45;;
20611;SDS011;10465;42.686;23.364;2022-12-04T16:50:44;10.25;;;6.25;;
20611;SDS011;10465;42.686;23.364;2022-12-04T16:53:18;11.70;;;6.03;;
20611;SDS011;10465;42.686;23.364;2022-12-04T16:55:46;10.52;;;6.22;;
20611;SDS011;10465;42.686;23.364;2022-12-04T16:58:13;10.77;;;6.82;;
20611;SDS011;10465;42.686;23.364;2022-12-04T17:00:39;10.18;;;6.30;;
20611;SDS011;10465;42.686;23.364;2022-12-04T17:03:08;10.77;;;6.30;;
20611;SDS011;10465;42.686;23.364;2022-12-04T17:05:40;11.55;;;6.45;;
20611;SDS011;10465;42.686;23.364;2022-12-04T17:08:06;9.35;;;6.25;;
20611;SDS011;10465;42.686;23.364;2022-12-04T17:10:31;11.57;;;6.32;;